Time;durP1;ratioP1;P1;durP2;ratioP2;P2;SDS_P1;SDS_P2;PMS_P1;PMS_P2;Temp;Humidity;BMP_temperature;BMP_pressure;BME280_temperature;BME280_humidity;BME280_pressure;Samples;Min_cycle;Max_cycle;Signal;HPM_P1;HPM_P2
2022/02/17 00:00:15;;;;;;;6.05;1.38;;;13.30;99.90;;;;;;5092098;28;20101;-78
2022/02/17 00:02:42;;;;;;;8.52;1.67;;;13.20;99.90;;;;;;5088759;28;20484;-78
2022/02/17 00:05:10;;;;;;;6.45;1.95;;;13.20;99.90;;;;;;5091641;28;20020;-78
2022/02/17 00:07:36;;;;;;;4.90;1.17;;;13.20;99.90;;;;;;5093549;28;20111;-78
2022/02/17 00:10:04;;;;;;;3.92;1.50;;;13.20;99.90;;;;;;5089358;28;20099;-78
2022/02/17 00:12:30;;;;;;;4.53;1.38;;;13.10;99.90;;;;;;5089249;28;20046;-78
2022/02/17 00:14:57;;;;;;;8.10;1.60;;;13.10;99.90;;;;;;5089834;28;20047;-79
2022/02/17 00:17:23;;;;;;;5.45;1.25;;;13.10;99.90;;;;;;5084826;28;20020;-79
2022/02/17 00:19:49;;;;;;;9.68;1.80;;;13.00;99.90;;;;;;5091468;28;20082;-78
2022/02/17 00:22:15;;;;;;;6.35;1.80;;;13.00;99.90;;;;;;5084308;28;20544;-78
2022/02/17 00:24:41;;;;;;;6.15;1.48;;;13.10;99.90;;;;;;5091822;28;20078;-78
2022/02/17 00:27:07;;;;;;;10.10;2.00;;;13.00;99.90;;;;;;5094749;28;20024;-79
2022/02/17 00:29:32;;;;;;;5.15;1.55;;;13.00;99.90;;;;;;5092150;28;20024;-78
2022/02/17 00:31:58;;;;;;;7.53;2.00;;;13.00;99.90;;;;;;5084661;28;20050;-78
2022/02/17 00:34:24;;;;;;;5.03;1.50;;;13.00;99.90;;;;;;5090797;28;20471;-77
2022/02/17 00:36:51;;;;;;;7.90;1.80;;;13.00;99.90;;;;;;5091181;28;20020;-79
2022/02/17 00:39:16;;;;;;;11.60;2.30;;;13.00;99.90;;;;;;5086608;28;20031;-80
2022/02/17 00:41:42;;;;;;;7.00;2.33;;;13.00;99.90;;;;;;5091610;28;20032;-79
2022/02/17 00:44:08;;;;;;;9.80;2.53;;;12.90;99.90;;;;;;5086253;28;20027;-78
2022/02/17 00:46:34;;;;;;;7.68;1.92;;;13.00;99.90;;;;;;5087088;28;20377;-79
2022/02/17 00:48:59;;;;;;;12.77;2.20;;;12.80;99.90;;;;;;5092115;28;20149;-78
2022/02/17 00:51:25;;;;;;;7.70;2.03;;;12.80;99.90;;;;;;5092361;28;20024;-78
2022/02/17 00:53:51;;;;;;;15.23;3.65;;;12.90;99.90;;;;;;5091601;28;20392;-80
2022/02/17 00:56:17;;;;;;;12.57;3.50;;;12.90;99.90;;;;;;5093592;28;20034;-79
2022/02/17 00:58:43;;;;;;;13.00;2.85;;;12.90;99.90;;;;;;5087051;28;20032;-79
2022/02/17 01:01:08;;;;;;;14.88;3.30;;;12.80;99.90;;;;;;5088422;28;20020;-80
2022/02/17 01:03:34;;;;;;;14.48;2.50;;;12.80;99.90;;;;;;5088471;28;20465;-79
2022/02/17 01:06:02;;;;;;;11.18;2.65;;;12.80;99.90;;;;;;5087529;28;20028;-79
2022/02/17 01:08:28;;;;;;;14.82;3.28;;;12.80;99.90;;;;;;5085438;28;20052;-80
2022/02/17 01:10:54;;;;;;;13.00;3.50;;;12.80;99.90;;;;;;5086308;28;20518;-79
2022/02/17 01:13:23;;;;;;;17.33;3.38;;;12.80;99.90;;;;;;5093333;28;20032;-79
2022/02/17 01:15:49;;;;;;;10.68;3.08;;;12.80;99.90;;;;;;5084573;28;20032;-80
2022/02/17 01:18:15;;;;;;;13.18;3.00;;;12.90;99.90;;;;;;5091017;28;20388;-80
2022/02/17 01:20:41;;;;;;;18.05;3.08;;;12.80;99.90;;;;;;5089233;28;20028;-80
2022/02/17 01:23:08;;;;;;;20.65;3.83;;;12.90;99.90;;;;;;5092411;28;20024;-79
2022/02/17 01:25:34;;;;;;;15.60;4.28;;;12.80;99.90;;;;;;5091367;28;20020;-80
2022/02/17 01:28:01;;;;;;;18.83;4.10;;;12.80;99.90;;;;;;5093809;28;20122;-78
2022/02/17 01:30:27;;;;;;;17.50;3.65;;;12.70;99.90;;;;;;5095477;28;20016;-81
2022/02/17 01:32:53;;;;;;;17.25;3.90;;;12.70;99.90;;;;;;5087524;28;20054;-80
2022/02/17 01:35:19;;;;;;;16.70;4.35;;;12.60;99.90;;;;;;5086895;28;20068;-79
2022/02/17 01:37:46;;;;;;;16.85;4.15;;;12.60;99.90;;;;;;5087415;28;20016;-78
2022/02/17 01:40:13;;;;;;;19.10;4.38;;;12.60;99.90;;;;;;5086148;28;20028;-79
2022/02/17 01:42:39;;;;;;;15.40;3.63;;;12.60;99.90;;;;;;5088259;28;20085;-79
2022/02/17 01:45:07;;;;;;;23.85;5.63;;;12.60;99.90;;;;;;5087529;28;20185;-80
2022/02/17 01:47:33;;;;;;;18.20;3.65;;;12.70;99.90;;;;;;5090682;28;20020;-79
2022/02/17 01:49:59;;;;;;;21.20;5.80;;;12.70;99.90;;;;;;5086501;28;20108;-79
2022/02/17 01:52:25;;;;;;;18.63;4.03;;;12.60;99.90;;;;;;5091522;28;20114;-79
2022/02/17 01:54:51;;;;;;;17.50;4.35;;;12.60;99.90;;;;;;5085880;28;20493;-79
2022/02/17 01:57:24;;;;;;;18.88;5.15;;;12.60;99.90;;;;;;5090074;28;20019;-80
2022/02/17 01:59:49;;;;;;;22.55;5.03;;;12.50;99.90;;;;;;5085946;28;20031;-79
2022/02/17 02:02:15;;;;;;;17.73;4.43;;;12.50;99.90;;;;;;5086319;28;20054;-78
2022/02/17 02:04:41;;;;;;;18.35;3.88;;;12.40;99.90;;;;;;5088284;28;22131;-79
2022/02/17 02:07:07;;;;;;;20.17;3.90;;;12.40;99.90;;;;;;5083333;28;20381;-78
2022/02/17 02:09:34;;;;;;;24.20;4.75;;;12.50;99.90;;;;;;5091302;28;20021;-78
2022/02/17 02:11:59;;;;;;;30.52;5.25;;;12.40;99.90;;;;;;5089039;28;20028;-79
2022/02/17 02:14:25;;;;;;;24.35;5.45;;;12.40;99.90;;;;;;5088710;28;20078;-80
2022/02/17 02:16:52;;;;;;;19.73;5.13;;;12.30;99.90;;;;;;5086123;28;20024;-80
2022/02/17 02:19:19;;;;;;;32.08;6.65;;;12.20;99.90;;;;;;5089367;28;20035;-79
2022/02/17 02:21:45;;;;;;;28.27;6.38;;;12.30;99.90;;;;;;5081708;28;20027;-79
2022/02/17 02:24:10;;;;;;;27.52;5.35;;;12.30;99.90;;;;;;5090932;28;20028;-79
2022/02/17 02:26:36;;;;;;;27.63;5.63;;;12.30;99.90;;;;;;5091098;28;20491;-79
2022/02/17 02:29:02;;;;;;;20.80;4.82;;;12.10;99.90;;;;;;5090040;28;20904;-79
2022/02/17 02:31:28;;;;;;;24.00;5.50;;;12.10;99.90;;;;;;5089474;28;20132;-79
2022/02/17 02:33:53;;;;;;;29.38;5.78;;;12.10;99.90;;;;;;5083732;28;20026;-79
2022/02/17 02:36:19;;;;;;;20.02;4.95;;;12.10;99.90;;;;;;5089108;28;20035;-80
2022/02/17 02:38:44;;;;;;;25.95;5.30;;;12.10;99.90;;;;;;5084452;28;20032;-79
2022/02/17 02:41:11;;;;;;;31.83;5.85;;;12.10;99.90;;;;;;5084830;28;20380;-79
2022/02/17 02:43:37;;;;;;;29.35;6.30;;;12.00;99.90;;;;;;5088822;28;20483;-79
2022/02/17 02:46:03;;;;;;;24.30;6.63;;;12.10;99.90;;;;;;5090292;28;20035;-79
2022/02/17 02:48:29;;;;;;;25.25;6.10;;;12.10;99.90;;;;;;5085601;28;20016;-79
2022/02/17 02:50:55;;;;;;;21.95;4.65;;;12.10;99.90;;;;;;5087788;28;20519;-78
2022/02/17 02:53:21;;;;;;;24.98;4.22;;;12.10;99.90;;;;;;5089265;28;20024;-79
2022/02/17 02:55:48;;;;;;;28.17;5.57;;;12.10;99.90;;;;;;5086115;28;20119;-79
2022/02/17 02:58:16;;;;;;;29.60;4.60;;;12.10;99.90;;;;;;5084172;28;20107;-78
2022/02/17 03:00:44;;;;;;;21.73;4.90;;;12.10;99.90;;;;;;5084778;28;20059;-81
2022/02/17 03:03:10;;;;;;;22.02;4.85;;;12.00;99.90;;;;;;5086926;28;20078;-81
2022/02/17 03:05:36;;;;;;;21.45;5.30;;;12.00;99.90;;;;;;5083979;28;20376;-80
2022/02/17 03:08:02;;;;;;;22.95;4.70;;;11.90;99.90;;;;;;5087594;28;20036;-81
2022/02/17 03:10:30;;;;;;;21.33;4.13;;;12.00;99.90;;;;;;5087798;28;22174;-80
2022/02/17 03:12:57;;;;;;;29.05;5.18;;;11.80;99.90;;;;;;5080946;28;20029;-80
2022/02/17 03:15:23;;;;;;;24.67;4.85;;;11.90;99.90;;;;;;5083680;28;20464;-79
2022/02/17 03:17:50;;;;;;;23.33;4.72;;;11.90;99.90;;;;;;5083002;28;20028;-80
2022/02/17 03:20:16;;;;;;;21.70;4.70;;;12.00;99.90;;;;;;5086989;28;20060;-79
2022/02/17 03:22:42;;;;;;;22.85;4.57;;;11.90;99.90;;;;;;5088710;28;20021;-80
2022/02/17 03:25:09;;;;;;;32.45;5.97;;;12.00;99.90;;;;;;5090853;28;20388;-81
2022/02/17 03:27:35;;;;;;;22.50;5.18;;;12.00;99.90;;;;;;5084828;28;20043;-83
2022/02/17 03:30:01;;;;;;;30.38;5.57;;;12.00;99.90;;;;;;5086237;28;20063;-80
2022/02/17 03:32:27;;;;;;;36.65;6.35;;;11.90;99.90;;;;;;5084901;28;20583;-79
2022/02/17 03:34:53;;;;;;;24.33;6.00;;;11.90;99.90;;;;;;5081254;28;20072;-80
2022/02/17 03:37:20;;;;;;;29.75;5.93;;;11.90;99.90;;;;;;5086267;28;20051;-82
2022/02/17 03:39:45;;;;;;;31.35;5.57;;;11.90;99.90;;;;;;5086206;28;20514;-81
2022/02/17 03:42:11;;;;;;;35.10;6.28;;;12.00;99.90;;;;;;5087201;28;20028;-80
2022/02/17 03:44:37;;;;;;;37.10;6.82;;;11.90;99.90;;;;;;5088327;28;20089;-80
2022/02/17 03:47:04;;;;;;;31.50;5.68;;;11.90;99.90;;;;;;5080224;28;20029;-80
2022/02/17 03:49:30;;;;;;;27.15;5.45;;;11.90;99.90;;;;;;5088834;28;20035;-81
2022/02/17 03:51:55;;;;;;;26.83;6.07;;;11.80;99.90;;;;;;5086976;28;20028;-79
2022/02/17 03:54:21;;;;;;;29.55;5.82;;;11.80;99.90;;;;;;5093500;28;20040;-81
2022/02/17 03:56:46;;;;;;;34.78;5.95;;;11.90;99.90;;;;;;5085361;28;20020;-79
2022/02/17 03:59:13;;;;;;;29.55;5.88;;;12.00;99.90;;;;;;5088095;28;20469;-80
2022/02/17 04:01:39;;;;;;;33.83;6.60;;;11.90;99.90;;;;;;5091650;28;20020;-82
2022/02/17 04:04:07;;;;;;;28.02;5.97;;;11.90;99.90;;;;;;5085238;28;20447;-79
2022/02/17 04:06:33;;;;;;;24.73;6.03;;;11.90;99.90;;;;;;5082954;28;20120;-80
2022/02/17 04:08:58;;;;;;;32.20;6.40;;;11.80;99.90;;;;;;5092231;28;20496;-80
2022/02/17 04:11:25;;;;;;;29.58;5.60;;;11.80;99.90;;;;;;5084376;28;20058;-80
2022/02/17 04:13:51;;;;;;;28.20;5.78;;;11.80;99.90;;;;;;5089556;28;20067;-79
2022/02/17 04:16:17;;;;;;;32.58;6.00;;;11.80;99.90;;;;;;5086481;28;20032;-80
2022/02/17 04:18:44;;;;;;;28.92;6.00;;;11.70;99.90;;;;;;5093016;28;20081;-80
2022/02/17 04:21:11;;;;;;;37.45;7.45;;;11.80;99.90;;;;;;5088492;28;20028;-80
2022/02/17 04:23:37;;;;;;;31.05;5.55;;;11.80;99.90;;;;;;5092732;28;20436;-79
2022/02/17 04:26:03;;;;;;;31.60;5.95;;;11.80;99.90;;;;;;5085286;28;20473;-80
2022/02/17 04:28:28;;;;;;;34.92;6.90;;;11.80;99.90;;;;;;5092805;28;20020;-83
2022/02/17 04:30:54;;;;;;;33.15;6.72;;;11.80;99.90;;;;;;5085905;28;20062;-85
2022/02/17 04:33:20;;;;;;;37.20;6.78;;;11.80;99.90;;;;;;5092779;28;20035;-82
2022/02/17 04:35:45;;;;;;;36.83;7.07;;;11.80;99.90;;;;;;5086993;28;20044;-85
2022/02/17 04:38:11;;;;;;;35.88;8.23;;;11.60;99.90;;;;;;5087124;28;20024;-85
2022/02/17 04:43:21;;;;;;;31.45;7.13;;;11.50;99.90;;;;;;5086884;28;20047;-83
2022/02/17 04:45:47;;;;;;;38.10;7.03;;;11.50;99.90;;;;;;5088462;28;20024;-82
2022/02/17 04:48:13;;;;;;;30.27;6.32;;;11.60;99.90;;;;;;5091268;28;20469;-84
2022/02/17 04:50:38;;;;;;;29.08;6.38;;;11.60;99.90;;;;;;5090455;28;20388;-84
2022/02/17 04:53:04;;;;;;;28.15;6.30;;;11.60;99.90;;;;;;5087872;28;20096;-81
2022/02/17 04:55:30;;;;;;;31.30;7.00;;;11.60;99.90;;;;;;5091955;28;20432;-82
2022/02/17 04:57:55;;;;;;;30.95;7.43;;;11.60;99.90;;;;;;5085632;28;20016;-81
2022/02/17 05:00:21;;;;;;;41.90;7.25;;;11.60;99.90;;;;;;5092232;28;20032;-81
2022/02/17 05:02:47;;;;;;;33.65;6.93;;;11.60;99.90;;;;;;5089199;28;20024;-84
2022/02/17 05:05:13;;;;;;;27.80;6.28;;;11.60;99.90;;;;;;5093898;28;20066;-80
2022/02/17 05:07:38;;;;;;;33.97;6.90;;;11.60;99.90;;;;;;5087581;28;20490;-81
2022/02/17 05:10:05;;;;;;;42.50;7.15;;;11.60;99.90;;;;;;5090884;28;20032;-80
2022/02/17 05:12:30;;;;;;;36.25;6.88;;;11.60;99.90;;;;;;5088582;28;20099;-82
2022/02/17 05:14:56;;;;;;;32.08;6.60;;;11.60;99.90;;;;;;5086927;28;20105;-80
2022/02/17 05:17:22;;;;;;;29.20;5.90;;;11.60;99.90;;;;;;5087284;28;20020;-79
2022/02/17 05:19:47;;;;;;;36.60;8.10;;;11.60;99.90;;;;;;5086591;28;20031;-80
2022/02/17 05:22:13;;;;;;;35.95;6.57;;;11.60;99.90;;;;;;5089358;28;20028;-80
2022/02/17 05:24:38;;;;;;;28.83;5.47;;;11.60;99.90;;;;;;5086724;28;20028;-80
2022/02/17 05:27:04;;;;;;;24.45;5.78;;;11.60;99.90;;;;;;5090498;28;20103;-79
2022/02/17 05:29:30;;;;;;;28.00;5.43;;;11.50;99.90;;;;;;5091201;28;20030;-79
2022/02/17 05:31:56;;;;;;;34.33;6.78;;;11.60;99.90;;;;;;5087443;28;20446;-80
2022/02/17 05:34:21;;;;;;;39.80;7.10;;;11.50;99.90;;;;;;5089122;28;20120;-80
2022/02/17 05:36:47;;;;;;;41.70;7.97;;;11.50;99.90;;;;;;5091402;28;20020;-80
2022/02/17 05:39:12;;;;;;;44.97;7.50;;;11.50;99.90;;;;;;5085207;28;20510;-84
2022/02/17 05:41:38;;;;;;;35.03;7.60;;;11.50;99.90;;;;;;5086140;28;20524;-80
2022/02/17 05:44:05;;;;;;;33.60;6.30;;;11.60;99.90;;;;;;5091867;28;20531;-80
2022/02/17 05:46:31;;;;;;;42.30;7.03;;;11.60;99.90;;;;;;5088099;28;20028;-81
2022/02/17 05:48:57;;;;;;;32.92;7.90;;;11.60;99.90;;;;;;5087709;28;20036;-82
2022/02/17 05:51:23;;;;;;;41.53;7.10;;;11.60;99.90;;;;;;5091558;28;20543;-80
2022/02/17 05:53:48;;;;;;;37.25;6.80;;;11.60;99.90;;;;;;5091681;28;20110;-81
2022/02/17 05:56:14;;;;;;;35.40;6.78;;;11.50;99.90;;;;;;5082839;28;20070;-82
2022/02/17 05:58:40;;;;;;;33.72;7.30;;;11.60;99.90;;;;;;5090218;28;20028;-80
2022/02/17 06:01:06;;;;;;;26.27;5.88;;;11.50;99.90;;;;;;5086600;28;20114;-81
2022/02/17 06:03:31;;;;;;;33.85;6.70;;;11.50;99.90;;;;;;5086047;28;20031;-80
2022/02/17 06:05:57;;;;;;;31.80;6.90;;;11.50;99.90;;;;;;5085815;28;20028;-79
2022/02/17 06:08:23;;;;;;;28.05;5.65;;;11.50;99.90;;;;;;5088792;28;20028;-79
2022/02/17 06:10:50;;;;;;;25.08;5.85;;;11.50;99.90;;;;;;5087820;28;20100;-79
2022/02/17 06:13:16;;;;;;;33.42;6.00;;;11.50;99.90;;;;;;5085154;28;20040;-80
2022/02/17 06:15:42;;;;;;;44.70;7.32;;;11.50;99.90;;;;;;5089225;28;20415;-78
2022/02/17 06:18:08;;;;;;;36.67;6.07;;;11.40;99.90;;;;;;5094181;28;20032;-79
2022/02/17 06:20:34;;;;;;;32.97;6.15;;;11.40;99.90;;;;;;5090033;28;20066;-79
2022/02/17 06:23:00;;;;;;;34.45;6.75;;;11.40;99.90;;;;;;5082982;28;20511;-79
2022/02/17 06:25:26;;;;;;;32.33;6.07;;;11.30;99.90;;;;;;5086229;28;20023;-81
2022/02/17 06:27:52;;;;;;;31.13;6.03;;;11.30;99.90;;;;;;5087387;28;20377;-78
2022/02/17 06:30:20;;;;;;;37.65;6.05;;;11.40;99.90;;;;;;5082421;28;20020;-78
2022/02/17 06:32:54;;;;;;;27.95;6.22;;;11.30;99.90;;;;;;5090695;28;20085;-78
2022/02/17 06:35:25;;;;;;;29.85;6.43;;;11.20;99.90;;;;;;5078916;28;20116;-79
2022/02/17 06:37:52;;;;;;;31.60;5.95;;;11.30;99.90;;;;;;5086128;28;20070;-78
2022/02/17 06:40:18;;;;;;;21.00;5.38;;;11.30;99.90;;;;;;5086486;28;20035;-79
2022/02/17 06:42:44;;;;;;;29.77;6.03;;;11.30;99.90;;;;;;5085821;28;20395;-79
2022/02/17 06:45:11;;;;;;;22.77;5.45;;;11.20;99.90;;;;;;5084346;28;20088;-81
2022/02/17 06:47:37;;;;;;;29.58;5.88;;;11.20;99.90;;;;;;5087638;28;20032;-80
2022/02/17 06:50:05;;;;;;;31.30;6.53;;;11.20;99.90;;;;;;5087387;28;20412;-74
2022/02/17 06:52:30;;;;;;;28.85;6.30;;;11.30;99.90;;;;;;5085999;28;20031;-75
2022/02/17 06:54:56;;;;;;;31.50;6.55;;;11.30;99.90;;;;;;5084416;28;20036;-80
2022/02/17 06:57:23;;;;;;;26.27;6.38;;;11.20;99.90;;;;;;5088894;28;20023;-80
2022/02/17 06:59:50;;;;;;;30.23;6.30;;;11.20;99.90;;;;;;5088297;28;20020;-79
2022/02/17 07:02:23;;;;;;;28.63;5.18;;;11.10;99.90;;;;;;5092515;28;20421;-79
2022/02/17 07:04:49;;;;;;;26.80;5.18;;;11.10;99.90;;;;;;5079526;28;20480;-80
2022/02/17 07:07:15;;;;;;;30.45;6.68;;;11.10;99.90;;;;;;5089699;28;20023;-78
2022/02/17 07:09:40;;;;;;;31.63;6.43;;;11.00;99.90;;;;;;5083290;28;20028;-80
2022/02/17 07:12:07;;;;;;;24.85;5.18;;;11.10;99.90;;;;;;5089997;28;20077;-79
2022/02/17 07:14:32;;;;;;;30.08;5.80;;;11.00;99.90;;;;;;5091146;28;20659;-79
2022/02/17 07:16:59;;;;;;;25.85;6.00;;;11.10;99.90;;;;;;5085635;28;20504;-78
2022/02/17 07:19:25;;;;;;;27.45;6.10;;;11.10;99.90;;;;;;5084438;28;20025;-79
2022/02/17 07:21:52;;;;;;;40.05;6.70;;;11.10;99.90;;;;;;5090353;28;20067;-78
2022/02/17 07:24:19;;;;;;;37.95;6.72;;;11.10;99.90;;;;;;5085612;28;20024;-79
2022/02/17 07:26:45;;;;;;;31.98;6.20;;;11.10;99.90;;;;;;5085901;28;20030;-77
2022/02/17 07:29:11;;;;;;;34.97;6.88;;;11.00;99.90;;;;;;5081933;28;20028;-79
2022/02/17 07:31:37;;;;;;;24.88;5.45;;;11.00;99.90;;;;;;5087945;28;20020;-80
2022/02/17 07:34:03;;;;;;;33.08;6.32;;;11.10;99.90;;;;;;5080838;28;20024;-79
2022/02/17 07:36:29;;;;;;;26.75;5.28;;;11.20;99.90;;;;;;5086442;28;20103;-78
2022/02/17 07:38:55;;;;;;;23.98;5.15;;;11.20;99.90;;;;;;5083451;28;20028;-77
2022/02/17 07:41:21;;;;;;;32.83;6.50;;;11.10;99.90;;;;;;5088059;28;20035;-77
2022/02/17 07:43:46;;;;;;;25.95;6.30;;;11.10;99.90;;;;;;5088625;28;20124;-78
2022/02/17 07:46:12;;;;;;;26.38;6.18;;;11.10;99.90;;;;;;5092429;28;20024;-78
2022/02/17 07:48:38;;;;;;;30.95;5.65;;;11.20;99.90;;;;;;5090163;28;20062;-80
2022/02/17 07:51:05;;;;;;;28.52;5.72;;;11.10;99.90;;;;;;5089335;28;20023;-80
2022/02/17 07:53:32;;;;;;;32.33;6.28;;;11.10;99.90;;;;;;5090321;28;20561;-78
2022/02/17 07:55:58;;;;;;;29.02;6.30;;;11.10;99.90;;;;;;5094184;28;20050;-79
2022/02/17 07:58:24;;;;;;;29.60;5.68;;;11.20;99.90;;;;;;5085707;28;20025;-77
2022/02/17 08:00:50;;;;;;;34.58;5.85;;;11.10;99.90;;;;;;5087934;28;20032;-77
2022/02/17 08:03:15;;;;;;;32.55;5.85;;;11.20;99.90;;;;;;5087543;28;20020;-78
2022/02/17 08:05:41;;;;;;;24.13;5.88;;;11.20;99.90;;;;;;5092953;28;20020;-77
2022/02/17 08:08:10;;;;;;;34.20;6.13;;;11.10;99.90;;;;;;5090175;28;20425;-79
2022/02/17 08:10:36;;;;;;;25.15;5.03;;;11.10;99.90;;;;;;5089682;28;20083;-79
2022/02/17 08:13:03;;;;;;;27.23;5.80;;;11.10;99.90;;;;;;5092229;28;20024;-78
2022/02/17 08:15:29;;;;;;;24.58;5.53;;;11.10;99.90;;;;;;5091900;28;20036;-79
2022/02/17 08:17:55;;;;;;;27.77;5.72;;;11.10;99.90;;;;;;5089284;28;20396;-79
2022/02/17 08:20:21;;;;;;;27.17;5.07;;;11.10;99.90;;;;;;5089864;28;20032;-77
2022/02/17 08:22:48;;;;;;;29.02;5.95;;;11.10;99.90;;;;;;5093823;28;20031;-80
2022/02/17 08:25:14;;;;;;;29.08;6.10;;;11.20;99.90;;;;;;5092658;28;20051;-78
2022/02/17 08:27:39;;;;;;;31.88;6.10;;;11.20;99.90;;;;;;5090127;28;20056;-79
2022/02/17 08:30:06;;;;;;;27.83;6.15;;;11.20;99.90;;;;;;5089399;28;20491;-77
2022/02/17 08:32:36;;;;;;;25.25;5.47;;;11.10;99.90;;;;;;5085458;28;20020;-80
2022/02/17 08:35:04;;;;;;;27.52;6.30;;;11.20;99.90;;;;;;5089357;28;20046;-78
2022/02/17 08:37:30;;;;;;;25.13;4.63;;;11.30;99.90;;;;;;5088781;28;20034;-79
2022/02/17 08:39:55;;;;;;;26.65;5.60;;;11.40;99.90;;;;;;5091164;28;20024;-80
2022/02/17 08:42:22;;;;;;;28.15;5.07;;;11.40;99.90;;;;;;5089996;28;20032;-78
2022/02/17 08:44:47;;;;;;;32.45;5.72;;;11.30;99.90;;;;;;5085992;28;20070;-78
2022/02/17 08:47:17;;;;;;;21.80;5.68;;;11.30;99.90;;;;;;5084606;28;20020;-79
2022/02/17 08:49:44;;;;;;;27.00;5.85;;;11.40;99.90;;;;;;5086967;28;20473;-78
2022/02/17 08:52:10;;;;;;;26.85;5.47;;;11.40;99.90;;;;;;5089360;28;20472;-78
2022/02/17 08:54:36;;;;;;;23.20;5.00;;;11.50;99.90;;;;;;5085115;28;20082;-77
2022/02/17 08:57:02;;;;;;;30.60;6.03;;;11.50;99.90;;;;;;5089278;28;20032;-78
2022/02/17 08:59:28;;;;;;;18.52;5.30;;;11.50;99.90;;;;;;5088963;28;20020;-77
2022/02/17 09:01:54;;;;;;;26.48;6.07;;;11.50;99.90;;;;;;5091255;28;20035;-78
2022/02/17 09:04:20;;;;;;;30.02;5.90;;;11.60;99.90;;;;;;5088227;28;20031;-77
2022/02/17 09:06:48;;;;;;;18.25;4.70;;;11.60;99.90;;;;;;5091602;28;20051;-77
2022/02/17 09:09:14;;;;;;;20.00;4.40;;;11.60;99.90;;;;;;5086593;28;20119;-77
2022/02/17 09:11:40;;;;;;;32.72;5.82;;;11.60;99.90;;;;;;5085175;28;20455;-78
2022/02/17 09:14:06;;;;;;;22.70;4.72;;;11.60;99.90;;;;;;5092185;28;20036;-76
2022/02/17 09:16:33;;;;;;;24.85;5.18;;;11.60;99.90;;;;;;5091521;28;20425;-77
2022/02/17 09:18:59;;;;;;;22.85;4.90;;;11.70;99.90;;;;;;5088050;28;20059;-77
2022/02/17 09:21:25;;;;;;;26.70;4.35;;;11.60;99.90;;;;;;5088643;28;20459;-78
2022/02/17 09:23:51;;;;;;;22.38;4.72;;;11.90;99.90;;;;;;5086397;28;20058;-78
2022/02/17 09:26:18;;;;;;;24.40;5.40;;;11.90;99.90;;;;;;5090566;28;20028;-77
2022/02/17 09:28:48;;;;;;;26.00;4.90;;;12.00;99.90;;;;;;5088846;28;20016;-77
2022/02/17 09:31:18;;;;;;;19.73;4.80;;;12.00;99.90;;;;;;5088133;28;20076;-78
2022/02/17 09:33:46;;;;;;;22.60;4.13;;;12.10;99.90;;;;;;5089385;28;20629;-79
2022/02/17 09:36:13;;;;;;;19.02;4.13;;;12.10;99.90;;;;;;5087518;28;20024;-77
2022/02/17 09:38:39;;;;;;;17.25;3.80;;;12.20;99.90;;;;;;5092920;28;20023;-78
2022/02/17 09:41:09;;;;;;;18.88;3.95;;;12.20;99.90;;;;;;5085578;28;20031;-78
2022/02/17 09:43:36;;;;;;;18.50;3.67;;;12.40;99.90;;;;;;5091405;28;20107;-78
2022/02/17 09:46:03;;;;;;;20.85;3.95;;;12.50;99.90;;;;;;5086074;28;20024;-77
2022/02/17 09:48:29;;;;;;;17.58;3.22;;;12.70;99.90;;;;;;5088345;28;20035;-75
2022/02/17 09:50:55;;;;;;;20.20;3.88;;;12.60;99.90;;;;;;5085756;28;20020;-76
2022/02/17 09:53:20;;;;;;;14.70;3.38;;;12.60;99.90;;;;;;5087569;28;20028;-77
2022/02/17 09:55:46;;;;;;;15.50;2.95;;;12.70;99.90;;;;;;5087106;28;20043;-77
2022/02/17 09:58:15;;;;;;;14.52;2.95;;;12.50;99.90;;;;;;5089832;28;20103;-78
2022/02/17 10:00:41;;;;;;;13.63;2.72;;;12.60;99.90;;;;;;5083305;28;20100;-77
2022/02/17 10:03:29;;;;;;;17.90;3.95;;;12.60;99.90;;;;;;5088455;28;20024;-77
2022/02/17 10:06:07;;;;;;;12.82;2.65;;;12.60;99.90;;;;;;5086507;28;20108;-76
2022/02/17 10:08:34;;;;;;;14.90;3.13;;;12.60;99.90;;;;;;5086604;28;20016;-77
2022/02/17 10:11:00;;;;;;;16.15;3.33;;;12.70;99.90;;;;;;5083339;28;20019;-77
2022/02/17 10:13:26;;;;;;;17.92;3.28;;;12.70;99.90;;;;;;5085010;28;20024;-76
2022/02/17 10:15:54;;;;;;;14.25;3.28;;;12.80;99.90;;;;;;5089796;28;20032;-78
2022/02/17 10:18:21;;;;;;;12.95;2.92;;;12.80;99.90;;;;;;5092856;28;20028;-76
2022/02/17 10:21:05;;;;;;;14.60;3.17;;;12.60;99.90;;;;;;5078169;28;20632;-77
2022/02/17 10:23:51;;;;;;;16.65;3.00;;;12.90;99.90;;;;;;5080838;28;20057;-76
2022/02/17 10:26:19;;;;;;;13.70;2.83;;;12.70;99.90;;;;;;5087855;28;20565;-78
2022/02/17 10:28:54;;;;;;;12.27;3.13;;;12.80;99.90;;;;;;5087746;28;20517;-78
2022/02/17 10:31:23;;;;;;;18.23;2.83;;;13.10;99.90;;;;;;5088241;28;20016;-77
2022/02/17 10:33:52;;;;;;;15.48;3.03;;;12.90;99.90;;;;;;5089006;28;20032;-78
2022/02/17 10:36:38;;;;;;;13.25;3.10;;;12.80;99.90;;;;;;5091922;28;20039;-77
2022/02/17 10:39:14;;;;;;;14.68;3.45;;;12.80;99.90;;;;;;5087101;28;20024;-76
2022/02/17 10:41:46;;;;;;;19.33;3.05;;;12.70;99.90;;;;;;5084137;28;20043;-77
2022/02/17 10:44:12;;;;;;;11.95;2.88;;;12.70;99.90;;;;;;5089600;28;20574;-76
2022/02/17 10:46:38;;;;;;;10.48;2.35;;;12.70;99.90;;;;;;5085859;28;20048;-76
2022/02/17 10:49:17;;;;;;;13.57;2.85;;;12.70;99.90;;;;;;5087740;28;20094;-80
2022/02/17 10:51:44;;;;;;;13.90;2.72;;;12.60;99.90;;;;;;5092311;28;20070;-77
2022/02/17 10:54:10;;;;;;;11.95;2.50;;;12.70;99.90;;;;;;5088675;28;20017;-76
2022/02/17 10:56:40;;;;;;;12.73;2.88;;;13.00;99.90;;;;;;5091655;28;20042;-78
2022/02/17 11:01:53;;;;;;;10.60;3.05;;;12.90;99.90;;;;;;5088198;28;20038;-77
2022/02/17 11:04:19;;;;;;;12.55;3.10;;;12.70;99.90;;;;;;5082626;28;20017;-77
2022/02/17 11:06:45;;;;;;;14.18;3.03;;;12.90;99.90;;;;;;5089382;28;20480;-76
2022/02/17 11:09:12;;;;;;;13.70;2.75;;;12.70;99.90;;;;;;5090541;28;20093;-77
2022/02/17 11:11:38;;;;;;;16.45;3.45;;;12.70;99.90;;;;;;5085725;28;20103;-78
2022/02/17 11:14:03;;;;;;;12.50;3.17;;;12.70;99.90;;;;;;5084441;28;20056;-78
2022/02/17 11:16:29;;;;;;;9.75;2.03;;;12.70;99.90;;;;;;5087173;28;20144;-78
2022/02/17 11:18:58;;;;;;;10.52;2.42;;;12.80;99.90;;;;;;5088027;28;20024;-79
2022/02/17 11:21:23;;;;;;;14.07;2.83;;;12.70;99.90;;;;;;5091196;28;20031;-77
2022/02/17 11:23:56;;;;;;;11.73;2.05;;;12.80;99.90;;;;;;5089084;28;20020;-76
2022/02/17 11:26:29;;;;;;;11.45;2.85;;;13.00;99.90;;;;;;5094605;28;20024;-76
2022/02/17 11:29:13;;;;;;;8.77;2.38;;;13.10;99.90;;;;;;5091771;28;20502;-76
2022/02/17 11:32:02;;;;;;;11.98;3.08;;;13.30;99.90;;;;;;5086081;28;20035;-77
2022/02/17 11:34:45;;;;;;;10.75;2.65;;;13.30;99.90;;;;;;5087394;28;20023;-76
2022/02/17 11:37:22;;;;;;;9.25;1.90;;;13.30;99.90;;;;;;5087362;28;20412;-76
2022/02/17 11:40:16;;;;;;;11.30;3.10;;;13.00;99.90;;;;;;5086253;28;20031;-76
2022/02/17 11:42:47;;;;;;;11.43;3.05;;;13.00;99.90;;;;;;5093570;28;20036;-76
2022/02/17 11:45:18;;;;;;;10.93;2.45;;;12.80;99.90;;;;;;5085285;28;20370;-77
2022/02/17 11:48:07;;;;;;;11.32;2.78;;;12.70;99.90;;;;;;5091350;28;20035;-75
2022/02/17 11:50:39;;;;;;;16.65;2.42;;;12.80;99.90;;;;;;5083813;28;20032;-77
2022/02/17 11:53:30;;;;;;;11.60;2.97;;;12.90;99.90;;;;;;5092264;28;20028;-75
2022/02/17 11:56:17;;;;;;;13.93;2.63;;;12.90;99.90;;;;;;5089062;28;20359;-75
2022/02/17 11:58:47;;;;;;;16.98;3.15;;;12.90;99.90;;;;;;5088170;28;20028;-76
2022/02/17 12:01:25;;;;;;;14.00;3.28;;;12.90;99.90;;;;;;5091799;28;20105;-76
2022/02/17 12:04:05;;;;;;;13.40;3.63;;;13.00;99.90;;;;;;5089998;28;20057;-75
2022/02/17 12:06:38;;;;;;;18.67;3.10;;;13.10;99.90;;;;;;5094476;28;20024;-77
2022/02/17 12:09:05;;;;;;;14.68;3.25;;;13.00;99.90;;;;;;5092640;28;20421;-76
2022/02/17 12:11:36;;;;;;;19.35;3.55;;;13.20;99.90;;;;;;5093928;28;20020;-75
2022/02/17 12:14:05;;;;;;;17.70;3.80;;;13.30;99.90;;;;;;5091292;28;20549;-76
2022/02/17 12:16:41;;;;;;;13.02;3.17;;;13.30;99.90;;;;;;5092726;28;20050;-77
2022/02/17 12:19:08;;;;;;;13.10;2.72;;;13.20;99.90;;;;;;5088307;28;20020;-77
2022/02/17 12:21:37;;;;;;;17.67;2.97;;;13.30;99.90;;;;;;5092287;28;20035;-76
2022/02/17 12:24:03;;;;;;;8.52;2.45;;;13.20;99.90;;;;;;5090640;28;20487;-77
2022/02/17 12:26:41;;;;;;;14.50;2.70;;;13.00;99.90;;;;;;5090234;28;20020;-77
2022/02/17 12:29:23;;;;;;;11.40;3.03;;;12.80;99.90;;;;;;5086892;28;20020;-77
2022/02/17 12:31:50;;;;;;;9.83;2.77;;;12.70;99.90;;;;;;5088546;28;20056;-76
2022/02/17 12:34:16;;;;;;;10.52;2.67;;;12.60;99.90;;;;;;5091977;28;20024;-76
2022/02/17 12:36:42;;;;;;;11.82;2.75;;;12.40;99.90;;;;;;5085981;28;20050;-76
2022/02/17 12:39:08;;;;;;;11.55;2.30;;;12.30;99.90;;;;;;5091738;28;20457;-76
2022/02/17 12:41:34;;;;;;;9.05;2.05;;;12.20;99.90;;;;;;5086346;28;20549;-76
2022/02/17 12:43:59;;;;;;;12.55;2.10;;;12.10;99.90;;;;;;5093188;28;20024;-76